Nickelena — WDER746 — position and weather

sailwx.info

Track history (hours):
 
Tides and Currents Weather Stations Pressure Air Temp Water Temp Dewpoint Dewpoint Depression Visibility Wind Speed Wind Dir Waves Ship Positions

Nickelena

Last reported at 2014-Dec-15 03:33 UTC. Time now 2014-Dec-23 02:17 UTC.
Position N 45°50' W 085°43'.

Length 33 m.

Type: Tug. MMSI: 367393840.

Date/timePositionNaut miles runAvg speedWind from/ knotsBaromVisibWave heightAir tempDewpointWater temp
2014-Dec-15 03:33N 45°50' W 085°43'8 8.1
2014-Dec-15 02:33N 45°53' W 085°33'10 8.3
2014-Dec-15 01:19N 45°52' W 085°18'6 8.4
2014-Dec-15 00:33N 45°51' W 085°09'8 8.5
2014-Dec-14 23:33N 45°50' W 084°57'9 8.7
2014-Dec-14 22:33N 45°49' W 084°44'9 8.9
2014-Dec-14 21:33N 45°51' W 084°32'26 6.6
2014-Dec-14 17:33N 46°03' W 083°58'11 8.3
2014-Dec-14 16:14N 46°12' W 084°08'45 6.7
2014-Dec-14 09:30N 46°44' W 084°54'8 8.8
2014-Dec-14 08:33N 46°48' W 085°04'  
Track history (hours):
 
Tides and Currents Weather Stations Pressure Air Temp Water Temp Dewpoint Dewpoint Depression Visibility Wind Speed Wind Dir Waves Ship Positions

Nickelena

Last reported at 2014-Dec-15 03:33 UTC. Time now 2014-Dec-23 02:17 UTC.
Position N 45°50' W 085°43'.

Length 33 m.

Type: Tug. MMSI: 367393840.

Date/timePositionNaut miles runAvg speedWind from/ knotsBaromVisibWave heightAir tempDewpointWater temp
2014-Dec-15 03:33N 45°50' W 085°43'8 8.1
2014-Dec-15 02:33N 45°53' W 085°33'10 8.3
2014-Dec-15 01:19N 45°52' W 085°18'6 8.4
2014-Dec-15 00:33N 45°51' W 085°09'8 8.5
2014-Dec-14 23:33N 45°50' W 084°57'9 8.7
2014-Dec-14 22:33N 45°49' W 084°44'9 8.9
2014-Dec-14 21:33N 45°51' W 084°32'26 6.6
2014-Dec-14 17:33N 46°03' W 083°58'11 8.3
2014-Dec-14 16:14N 46°12' W 084°08'45 6.7
2014-Dec-14 09:30N 46°44' W 084°54'8 8.8
2014-Dec-14 08:33N 46°48' W 085°04'  

Dump ship's entire track history